createdAt,value
2022-10-14T00:01:47.508Z,100846.60
2022-10-14T00:04:21.154Z,100844.86
2022-10-14T00:06:52.869Z,100843.05
2022-10-14T00:09:25.273Z,100844.52
2022-10-14T00:11:57.273Z,100849.71
2022-10-14T00:14:31.358Z,100854.83
2022-10-14T00:17:03.066Z,100856.50
2022-10-14T00:19:35.810Z,100861.61
2022-10-14T00:22:07.433Z,100857.33
2022-10-14T00:24:40.162Z,100851.94
2022-10-14T00:27:11.909Z,100846.44
2022-10-14T00:29:43.579Z,100842.91
2022-10-14T00:32:15.621Z,100845.90
2022-10-14T00:34:48.135Z,100844.88
2022-10-14T00:37:20.120Z,100844.11
2022-10-14T00:39:56.910Z,100846.05
2022-10-14T00:42:29.037Z,100846.66
2022-10-14T00:45:14.780Z,100848.95
2022-10-14T00:47:46.754Z,100842.13
2022-10-14T00:50:23.966Z,100844.23
2022-10-14T00:52:56.292Z,100842.16
2022-10-14T00:55:30.504Z,100839.08
2022-10-14T00:58:02.287Z,100840.48
2022-10-14T01:00:37.587Z,100841.91
2022-10-14T01:03:18.578Z,100839.04
2022-10-14T01:05:54.394Z,100834.51
2022-10-14T01:08:36.862Z,100832.85
2022-10-14T01:11:19.466Z,100830.78
2022-10-14T01:14:04.063Z,100828.30
2022-10-14T01:16:42.608Z,100828.42
2022-10-14T01:19:30.318Z,100829.23
2022-10-14T01:22:10.910Z,100822.35
2022-10-14T01:24:56.056Z,100817.98
2022-10-14T01:27:57.177Z,100821.29
2022-10-14T01:30:34.005Z,100820.80
2022-10-14T01:33:14.549Z,100825.80
2022-10-14T01:35:58.392Z,100818.85
2022-10-14T01:38:35.171Z,100814.55
2022-10-14T01:41:11.526Z,100815.17
2022-10-14T01:43:47.865Z,100813.52
2022-10-14T01:46:21.676Z,100812.41
2022-10-14T01:48:55.838Z,100810.26
2022-10-14T01:51:31.621Z,100809.55
2022-10-14T01:54:11.399Z,100813.65
2022-10-14T01:56:44.046Z,100812.23
2022-10-14T01:59:18.089Z,100813.14
2022-10-14T02:01:49.759Z,100807.98
2022-10-14T02:04:25.261Z,100804.53
2022-10-14T02:07:06.157Z,100804.46
2022-10-14T02:09:47.632Z,100804.88
2022-10-14T02:12:33.672Z,100806.21
2022-10-14T02:15:19.710Z,100799.88
2022-10-14T02:17:58.254Z,100799.86
2022-10-14T02:20:37.999Z,100799.14
2022-10-14T02:23:15.651Z,100793.45
2022-10-14T02:25:49.204Z,100795.65
2022-10-14T02:28:24.462Z,100800.15
2022-10-14T02:31:02.642Z,100798.08
2022-10-14T02:33:40.475Z,100797.88
2022-10-14T02:36:15.611Z,100801.48
2022-10-14T02:38:49.043Z,100797.52
2022-10-14T02:41:25.429Z,100800.84
2022-10-14T02:43:57.129Z,100798.79
2022-10-14T02:46:30.220Z,100798.87
2022-10-14T02:49:01.860Z,100795.52
2022-10-14T02:51:35.222Z,100794.02
2022-10-14T02:54:06.956Z,100795.25
2022-10-14T02:56:38.645Z,100796.56
2022-10-14T02:59:10.312Z,100798.94
2022-10-14T03:01:44.470Z,100797.52
2022-10-14T03:04:16.137Z,100797.58
2022-10-14T03:06:47.857Z,100798.98
2022-10-14T03:09:23.012Z,100794.98
2022-10-14T03:11:56.382Z,100793.96
2022-10-14T03:14:28.121Z,100794.83
2022-10-14T03:17:07.021Z,100789.03
2022-10-14T03:19:38.734Z,100790.67
2022-10-14T03:22:12.890Z,100791.09
2022-10-14T03:24:44.541Z,100792.27
2022-10-14T03:27:17.731Z,100790.39
2022-10-14T03:29:49.674Z,100787.95
2022-10-14T03:32:23.473Z,100786.92
2022-10-14T03:34:55.478Z,100786.42
2022-10-14T03:37:28.750Z,100792.39
2022-10-14T03:40:01.236Z,100791.48
2022-10-14T03:42:38.806Z,100792.10
2022-10-14T03:45:11.875Z,100795.75
2022-10-14T03:47:43.612Z,100797.11
2022-10-14T03:50:19.762Z,100794.72
2022-10-14T03:52:55.397Z,100798.52
2022-10-14T03:55:27.832Z,100798.67
2022-10-14T03:57:59.416Z,100793.25
2022-10-14T04:00:32.722Z,100800.05
2022-10-14T04:03:06.036Z,100797.65
2022-10-14T04:05:37.597Z,100793.64
2022-10-14T04:08:10.114Z,100790.46
2022-10-14T04:10:41.674Z,100786.52
2022-10-14T04:13:13.350Z,100788.15
2022-10-14T04:15:44.959Z,100788.09
2022-10-14T04:18:16.661Z,100788.20
2022-10-14T04:20:48.271Z,100789.73
2022-10-14T04:23:20.070Z,100790.85
2022-10-14T04:25:51.638Z,100782.77
2022-10-14T04:28:23.294Z,100782.13
2022-10-14T04:30:55.082Z,100778.84
2022-10-14T04:33:27.495Z,100775.41
2022-10-14T04:36:02.313Z,100777.94
2022-10-14T04:38:34.366Z,100773.48
2022-10-14T04:41:06.137Z,100773.61
2022-10-14T04:43:37.683Z,100773.10
2022-10-14T04:46:09.394Z,100776.60
2022-10-14T04:48:41.168Z,100772.17
2022-10-14T04:51:12.862Z,100769.98
2022-10-14T04:53:45.389Z,100768.50
2022-10-14T04:56:17.298Z,100766.77
2022-10-14T04:58:48.850Z,100763.08
2022-10-14T05:01:20.563Z,100762.52
2022-10-14T05:03:53.213Z,100763.79
2022-10-14T05:06:25.546Z,100761.98
2022-10-14T05:08:57.165Z,100764.88
2022-10-14T05:11:28.738Z,100764.05
2022-10-14T05:14:01.286Z,100764.29
2022-10-14T05:16:32.831Z,100765.41
2022-10-14T05:19:07.840Z,100764.58
2022-10-14T05:21:39.732Z,100764.44
2022-10-14T05:24:13.863Z,100764.96
2022-10-14T05:26:45.571Z,100761.56
2022-10-14T05:29:17.672Z,100757.39
2022-10-14T05:31:49.529Z,100756.48
2022-10-14T05:34:21.206Z,100756.13
2022-10-14T05:36:52.816Z,100757.86
2022-10-14T05:39:24.410Z,100760.92
2022-10-14T05:41:56.000Z,100760.82
2022-10-14T05:44:27.650Z,100758.68
2022-10-14T05:46:59.152Z,100756.85
2022-10-14T05:49:30.982Z,100756.19
2022-10-14T05:52:02.593Z,100760.83
2022-10-14T05:54:35.016Z,100760.70
2022-10-14T05:57:06.803Z,100755.63
2022-10-14T05:59:39.546Z,100758.58
2022-10-14T06:02:11.875Z,100763.70
2022-10-14T06:04:44.578Z,100766.11
2022-10-14T06:07:16.122Z,100766.50
2022-10-14T06:09:48.957Z,100766.09
2022-10-14T06:12:20.899Z,100762.52
2022-10-14T06:14:52.829Z,100766.83
2022-10-14T06:17:24.420Z,100768.39
2022-10-14T06:19:56.531Z,100766.41
2022-10-14T06:22:28.771Z,100771.89
2022-10-14T06:25:04.205Z,100774.61
2022-10-14T06:27:36.127Z,100770.54
2022-10-14T06:30:21.408Z,100773.98
2022-10-14T06:32:55.181Z,100773.60
2022-10-14T06:35:26.914Z,100774.20
2022-10-14T06:37:59.070Z,100773.63
2022-10-14T06:40:33.028Z,100771.38
2022-10-14T06:43:04.967Z,100769.41
2022-10-14T06:45:36.714Z,100764.15
2022-10-14T06:48:09.080Z,100767.34
2022-10-14T06:50:42.678Z,100766.00
2022-10-14T06:53:14.284Z,100762.59
2022-10-14T06:55:46.536Z,100766.37
2022-10-14T06:58:18.103Z,100768.05
2022-10-14T07:00:52.646Z,100769.20
2022-10-14T07:03:24.250Z,100776.58
2022-10-14T07:05:55.893Z,100778.09
2022-10-14T07:08:28.002Z,100779.14
2022-10-14T07:11:00.516Z,100786.15
2022-10-14T07:13:32.100Z,100785.91
2022-10-14T07:16:03.761Z,100790.46
2022-10-14T07:18:35.396Z,100789.45
2022-10-14T07:21:10.758Z,100782.39
2022-10-14T07:23:43.150Z,100782.29
2022-10-14T07:26:16.433Z,100779.77
2022-10-14T07:28:48.103Z,100775.61
2022-10-14T07:31:21.361Z,100777.11
2022-10-14T07:33:53.341Z,100777.17
2022-10-14T07:36:25.244Z,100782.75
2022-10-14T07:38:56.802Z,100785.05
2022-10-14T07:41:29.504Z,100786.70
2022-10-14T07:44:05.621Z,100786.30
2022-10-14T07:46:39.537Z,100790.51
2022-10-14T07:49:14.223Z,100791.06
2022-10-14T07:51:47.427Z,100793.52
2022-10-14T07:54:20.984Z,100790.23
2022-10-14T07:56:58.025Z,100788.26
2022-10-14T07:59:29.708Z,100784.63
2022-10-14T08:02:01.482Z,100786.10
2022-10-14T08:04:33.112Z,100783.29
2022-10-14T08:07:05.072Z,100781.10
2022-10-14T08:09:38.634Z,100779.77
2022-10-14T08:12:11.331Z,100780.60
2022-10-14T08:14:42.902Z,100786.30
2022-10-14T08:17:14.487Z,100784.98
2022-10-14T08:19:46.566Z,100784.32
2022-10-14T08:22:19.967Z,100782.75
2022-10-14T08:24:51.895Z,100785.20
2022-10-14T08:27:26.749Z,100782.23
2022-10-14T08:29:58.411Z,100780.23
2022-10-14T08:32:30.006Z,100777.16
2022-10-14T08:35:01.546Z,100772.92
2022-10-14T08:37:33.194Z,100769.15
2022-10-14T08:40:10.536Z,100772.23
2022-10-14T08:42:49.875Z,100775.13
2022-10-14T08:45:28.057Z,100772.84
2022-10-14T08:48:03.836Z,100779.41
2022-10-14T08:50:39.539Z,100779.90
2022-10-14T08:53:16.317Z,100780.27
2022-10-14T08:55:52.726Z,100784.09
2022-10-14T08:58:29.662Z,100782.29
2022-10-14T09:01:08.649Z,100782.59
2022-10-14T09:03:44.752Z,100781.27
2022-10-14T09:06:23.578Z,100780.61
2022-10-14T09:08:58.059Z,100781.28
2022-10-14T09:11:34.503Z,100777.11
2022-10-14T09:14:10.102Z,100777.65
2022-10-14T09:16:42.582Z,100780.61
2022-10-14T09:19:22.113Z,100779.42
2022-10-14T09:21:55.976Z,100781.15
2022-10-14T09:24:31.793Z,100779.13
2022-10-14T09:27:07.750Z,100779.54
2022-10-14T09:29:44.285Z,100779.74
2022-10-14T09:32:22.136Z,100780.14
2022-10-14T09:34:54.966Z,100781.38
2022-10-14T09:37:29.838Z,100777.84
2022-10-14T09:40:13.406Z,100779.18
2022-10-14T09:42:50.116Z,100778.15
2022-10-14T09:45:23.544Z,100778.73
2022-10-14T09:47:58.249Z,100777.73
2022-10-14T09:50:37.889Z,100776.64
2022-10-14T09:53:17.102Z,100774.42
2022-10-14T09:55:53.699Z,100776.31
2022-10-14T09:58:32.952Z,100774.91
2022-10-14T10:01:07.145Z,100775.87
2022-10-14T10:03:41.155Z,100772.46
2022-10-14T10:06:14.937Z,100769.20
2022-10-14T10:08:58.343Z,100766.84
2022-10-14T10:11:38.282Z,100766.04
2022-10-14T10:14:24.183Z,100765.69
2022-10-14T10:17:16.819Z,100762.85
2022-10-14T10:19:51.550Z,100757.66
2022-10-14T10:22:28.127Z,100753.58
2022-10-14T10:25:29.511Z,100757.70
2022-10-14T10:28:02.274Z,100756.70
2022-10-14T10:30:40.222Z,100748.77
2022-10-14T10:33:29.403Z,100745.23
2022-10-14T10:36:13.463Z,100750.13
2022-10-14T10:38:58.011Z,100747.94
2022-10-14T10:41:47.571Z,100747.44
2022-10-14T10:44:34.331Z,100746.10
2022-10-14T10:47:24.586Z,100745.46
2022-10-14T10:50:19.345Z,100741.64
2022-10-14T10:53:07.144Z,100744.80
2022-10-14T10:58:39.065Z,100738.33
2022-10-14T11:01:22.236Z,100741.02
2022-10-14T11:04:06.216Z,100740.27
2022-10-14T11:07:04.123Z,100738.48
2022-10-14T11:09:59.962Z,100735.91
2022-10-14T11:12:41.283Z,100735.83
2022-10-14T11:15:26.489Z,100733.16
2022-10-14T11:18:02.954Z,100730.27
2022-10-14T11:20:49.120Z,100729.63
2022-10-14T11:23:43.114Z,100724.17
2022-10-14T11:26:29.253Z,100724.98
2022-10-14T11:29:12.308Z,100719.87
2022-10-14T11:31:55.416Z,100717.48
2022-10-14T11:34:42.932Z,100713.70
2022-10-14T11:37:27.992Z,100713.38
2022-10-14T11:40:03.811Z,100713.58
2022-10-14T11:42:49.383Z,100705.58
2022-10-14T11:45:42.899Z,100706.03
2022-10-14T11:48:32.459Z,100702.60
2022-10-14T11:51:13.174Z,100704.61
2022-10-14T11:53:55.924Z,100699.42
2022-10-14T11:56:45.888Z,100699.42
2022-10-14T11:59:36.741Z,100700.02
2022-10-14T12:02:20.858Z,100697.67
2022-10-14T12:04:59.609Z,100699.36
2022-10-14T12:07:39.897Z,100697.83
2022-10-14T12:10:23.461Z,100696.65
2022-10-14T12:12:56.558Z,100690.83
2022-10-14T12:18:08.819Z,100686.96
2022-10-14T12:20:45.825Z,100690.52
2022-10-14T12:23:23.884Z,100684.59
2022-10-14T12:26:01.319Z,100683.34
2022-10-14T12:28:33.627Z,100677.83
2022-10-14T12:31:34.694Z,100675.52
2022-10-14T12:34:38.810Z,100673.36
2022-10-14T12:37:50.389Z,100671.58
2022-10-14T12:40:34.086Z,100672.41
2022-10-14T12:43:17.381Z,100671.20
2022-10-14T12:45:57.636Z,100672.09
2022-10-14T12:48:31.646Z,100669.15
2022-10-14T12:51:14.773Z,100663.91
2022-10-14T12:54:06.018Z,100658.23
2022-10-14T12:56:43.358Z,100661.30
2022-10-14T12:59:26.629Z,100658.61
2022-10-14T13:02:05.234Z,100661.48
2022-10-14T13:04:36.971Z,100659.83
2022-10-14T13:07:41.018Z,100654.33
2022-10-14T13:10:50.506Z,100649.98
2022-10-14T13:13:57.292Z,100650.14
2022-10-14T13:16:59.955Z,100655.34
2022-10-14T13:19:45.546Z,100657.14
2022-10-14T13:22:43.667Z,100658.10
2022-10-14T13:25:19.201Z,100655.14
2022-10-14T13:28:02.402Z,100654.77
2022-10-14T13:30:52.652Z,100654.00
2022-10-14T13:33:32.725Z,100647.42
2022-10-14T13:36:16.155Z,100642.89
2022-10-14T13:38:54.891Z,100641.23
2022-10-14T13:41:31.395Z,100637.39
2022-10-14T13:44:03.850Z,100639.76
2022-10-14T13:46:41.347Z,100643.76
2022-10-14T13:49:17.897Z,100642.38
2022-10-14T13:51:56.783Z,100644.90
2022-10-14T13:54:30.730Z,100645.48
2022-10-14T13:57:47.898Z,100648.04
2022-10-14T14:02:57.731Z,100645.67
2022-10-14T14:05:36.828Z,100647.46
2022-10-14T14:08:36.585Z,100645.60
2022-10-14T14:11:22.099Z,100645.69
2022-10-14T14:14:01.695Z,100642.55
2022-10-14T14:16:36.724Z,100640.65
2022-10-14T14:19:18.663Z,100640.77
2022-10-14T14:21:50.275Z,100645.14
2022-10-14T14:24:25.724Z,100646.03
2022-10-14T14:26:58.244Z,100647.31
2022-10-14T14:29:32.816Z,100645.73
2022-10-14T14:32:08.136Z,100644.50
2022-10-14T14:34:44.027Z,100644.68
2022-10-14T14:40:28.168Z,100641.61
2022-10-14T14:43:02.123Z,100642.73
2022-10-14T14:45:41.871Z,100638.63
2022-10-14T14:48:17.244Z,100638.95
2022-10-14T14:50:51.353Z,100640.06
2022-10-14T14:53:28.931Z,100637.61
2022-10-14T14:56:10.400Z,100635.56
2022-10-14T14:58:50.670Z,100632.38
2022-10-14T15:01:25.809Z,100630.38
2022-10-14T15:04:11.937Z,100630.52
2022-10-14T15:06:52.407Z,100628.75
2022-10-14T15:09:31.059Z,100630.83
2022-10-14T15:12:06.118Z,100626.65
2022-10-14T15:14:46.110Z,100622.47
2022-10-14T15:17:33.706Z,100621.17
2022-10-14T15:20:30.124Z,100620.67
2022-10-14T15:23:03.489Z,100619.35
2022-10-14T15:25:35.165Z,100620.30
2022-10-14T15:28:06.887Z,100615.79
2022-10-14T15:30:53.991Z,100617.29
2022-10-14T15:33:27.300Z,100613.55
2022-10-14T15:36:01.817Z,100611.01
2022-10-14T15:38:33.897Z,100609.77
2022-10-14T15:41:06.135Z,100605.66
2022-10-14T15:43:40.020Z,100604.52
2022-10-14T15:46:32.783Z,100597.21
2022-10-14T15:49:06.271Z,100593.63
2022-10-14T15:51:38.027Z,100590.13
2022-10-14T15:54:13.689Z,100590.20
2022-10-14T15:56:46.484Z,100587.61
2022-10-14T15:59:19.625Z,100587.45
2022-10-14T16:01:52.015Z,100587.48
2022-10-14T16:04:27.700Z,100587.17
2022-10-14T16:06:59.650Z,100583.67
2022-10-14T16:09:31.191Z,100582.13
2022-10-14T16:12:02.687Z,100580.33
2022-10-14T16:14:34.260Z,100576.61
2022-10-14T16:17:05.910Z,100575.01
2022-10-14T16:19:38.137Z,100570.43
2022-10-14T16:22:10.168Z,100568.42
2022-10-14T16:24:41.728Z,100568.35
2022-10-14T16:27:13.438Z,100565.27
2022-10-14T16:29:45.086Z,100565.79
2022-10-14T16:32:16.772Z,100563.25
2022-10-14T16:34:48.301Z,100563.60
2022-10-14T16:37:20.041Z,100559.89
2022-10-14T16:39:51.840Z,100560.74
2022-10-14T16:42:23.383Z,100550.89
2022-10-14T16:44:55.040Z,100550.02
2022-10-14T16:47:26.724Z,100548.84
2022-10-14T16:49:59.244Z,100546.89
2022-10-14T16:52:50.841Z,100540.75
2022-10-14T16:55:23.664Z,100541.31
2022-10-14T16:57:55.207Z,100541.02
2022-10-14T17:00:30.075Z,100541.27
2022-10-14T17:03:02.804Z,100541.27
2022-10-14T17:05:34.836Z,100538.63
2022-10-14T17:08:06.547Z,100541.92
2022-10-14T17:10:40.694Z,100543.30
2022-10-14T17:13:12.249Z,100545.00
2022-10-14T17:15:43.787Z,100545.91
2022-10-14T17:18:18.044Z,100544.94
2022-10-14T17:20:51.396Z,100546.16
2022-10-14T17:23:22.902Z,100545.42
2022-10-14T17:25:56.085Z,100541.23
2022-10-14T17:28:28.032Z,100541.73
2022-10-14T17:31:02.788Z,100548.13
2022-10-14T17:33:36.458Z,100550.08
2022-10-14T17:36:14.833Z,100554.39
2022-10-14T17:38:47.488Z,100556.64
2022-10-14T17:41:20.215Z,100555.19
2022-10-14T17:43:53.267Z,100554.43
2022-10-14T17:46:29.318Z,100550.94
2022-10-14T17:49:03.921Z,100547.66
2022-10-14T17:51:36.337Z,100553.75
2022-10-14T17:54:10.940Z,100553.27
2022-10-14T17:56:43.226Z,100552.54
2022-10-14T17:59:14.798Z,100554.45
2022-10-14T18:02:04.039Z,100556.05
2022-10-14T18:04:37.149Z,100552.86
2022-10-14T18:07:07.248Z,100547.18
2022-10-14T18:09:38.877Z,100550.95
2022-10-14T18:12:11.214Z,100548.41
2022-10-14T18:14:43.133Z,100544.60
2022-10-14T18:17:14.924Z,100545.83
2022-10-14T18:19:51.815Z,100543.14
2022-10-14T18:22:24.656Z,100541.11
2022-10-14T18:24:56.282Z,100540.30
2022-10-14T18:27:28.313Z,100545.53
2022-10-14T18:29:59.941Z,100540.87
2022-10-14T18:32:31.534Z,100544.58
2022-10-14T18:35:03.195Z,100539.96
2022-10-14T18:37:34.856Z,100541.25
2022-10-14T18:40:11.153Z,100538.44
2022-10-14T18:42:42.735Z,100538.16
2022-10-14T18:45:14.391Z,100536.54
2022-10-14T18:47:47.437Z,100536.55
2022-10-14T18:50:20.934Z,100537.67
2022-10-14T18:52:52.904Z,100538.61
2022-10-14T18:55:24.476Z,100540.10
2022-10-14T18:57:56.081Z,100536.48
2022-10-14T19:00:27.899Z,100537.35
2022-10-14T19:02:59.546Z,100538.59
2022-10-14T19:05:33.211Z,100540.11
2022-10-14T19:08:06.163Z,100539.57
2022-10-14T19:10:37.786Z,100532.71
2022-10-14T19:13:09.347Z,100535.94
2022-10-14T19:15:45.369Z,100539.74
2022-10-14T19:18:19.510Z,100535.73
2022-10-14T19:20:56.574Z,100535.98
2022-10-14T19:23:28.372Z,100537.75
2022-10-14T19:26:01.157Z,100537.80
2022-10-14T19:28:32.819Z,100532.64
2022-10-14T19:31:09.235Z,100532.16
2022-10-14T19:33:42.880Z,100526.21
2022-10-14T19:36:16.201Z,100525.44
2022-10-14T19:38:52.352Z,100524.55
2022-10-14T19:41:24.009Z,100522.92
2022-10-14T19:43:57.268Z,100518.41
2022-10-14T19:46:30.549Z,100516.14
2022-10-14T19:49:04.375Z,100512.30
2022-10-14T19:51:36.319Z,100507.31
2022-10-14T19:54:08.301Z,100502.77
2022-10-14T19:56:40.255Z,100502.98
2022-10-14T19:59:13.607Z,100505.27
2022-10-14T20:01:45.249Z,100504.53
2022-10-14T20:04:16.899Z,100503.64
2022-10-14T20:06:48.571Z,100498.23
2022-10-14T20:09:20.398Z,100495.14
2022-10-14T20:11:53.161Z,100492.21
2022-10-14T20:14:25.842Z,100489.95
2022-10-14T20:16:57.500Z,100486.20
2022-10-14T20:19:29.136Z,100484.50
2022-10-14T20:22:01.686Z,100481.45
2022-10-14T20:24:34.320Z,100474.86
2022-10-14T20:27:08.057Z,100466.60
2022-10-14T20:29:42.775Z,100463.56
2022-10-14T20:32:14.331Z,100464.76
2022-10-14T20:34:45.941Z,100469.16
2022-10-14T20:37:17.519Z,100475.38
2022-10-14T20:39:49.589Z,100472.64
2022-10-14T20:42:21.204Z,100463.63
2022-10-14T20:44:52.713Z,100463.33
2022-10-14T20:47:25.017Z,100470.08
2022-10-14T20:49:56.895Z,100475.90
2022-10-14T20:52:29.603Z,100467.45
2022-10-14T20:55:02.056Z,100467.85
2022-10-14T20:57:33.601Z,100476.40
2022-10-14T21:00:13.948Z,100477.33
2022-10-14T21:02:49.862Z,100474.42
2022-10-14T21:05:21.532Z,100468.74
2022-10-14T21:07:53.555Z,100470.33
2022-10-14T21:10:27.675Z,100475.86
2022-10-14T21:12:59.301Z,100469.09
2022-10-14T21:15:31.137Z,100464.45
2022-10-14T21:18:02.698Z,100463.09
2022-10-14T21:20:38.317Z,100461.13
2022-10-14T21:23:09.858Z,100454.95
2022-10-14T21:25:41.904Z,100453.62
2022-10-14T21:28:13.460Z,100448.86
2022-10-14T21:30:45.933Z,100441.86
2022-10-14T21:33:17.565Z,100432.81
2022-10-14T21:35:49.155Z,100434.81
2022-10-14T21:38:20.694Z,100430.52
2022-10-14T21:40:53.204Z,100436.91
2022-10-14T21:43:24.859Z,100436.55
2022-10-14T21:45:56.800Z,100433.91
2022-10-14T21:48:28.322Z,100432.85
2022-10-14T21:51:09.451Z,100430.17
2022-10-14T21:53:42.311Z,100430.63
2022-10-14T21:56:15.357Z,100434.27
2022-10-14T21:58:46.939Z,100432.20
2022-10-14T22:01:23.509Z,100428.40
2022-10-14T22:03:58.242Z,100425.11
2022-10-14T22:06:30.751Z,100421.34
2022-10-14T22:09:04.498Z,100423.73
2022-10-14T22:11:39.798Z,100418.18
2022-10-14T22:14:14.592Z,100416.45
2022-10-14T22:16:46.459Z,100410.41
2022-10-14T22:19:18.265Z,100408.77
2022-10-14T22:21:51.895Z,100403.61
2022-10-14T22:24:23.515Z,100398.57
2022-10-14T22:26:55.853Z,100394.61
2022-10-14T22:29:27.387Z,100390.70
2022-10-14T22:32:01.539Z,100392.44
2022-10-14T22:34:33.218Z,100387.59
2022-10-14T22:37:04.800Z,100386.28
2022-10-14T22:39:36.574Z,100381.15
2022-10-14T22:42:09.840Z,100376.39
2022-10-14T22:44:41.387Z,100375.46
2022-10-14T22:47:12.910Z,100374.77
2022-10-14T22:49:44.492Z,100369.04
2022-10-14T22:52:17.658Z,100364.34
2022-10-14T22:54:49.943Z,100363.04
2022-10-14T22:57:22.026Z,100363.65
2022-10-14T22:59:53.538Z,100362.41
2022-10-14T23:02:25.540Z,100363.47
2022-10-14T23:04:57.420Z,100357.55
2022-10-14T23:07:29.842Z,100357.84
2022-10-14T23:10:01.476Z,100355.98
2022-10-14T23:12:33.163Z,100355.98
2022-10-14T23:15:04.986Z,100353.09
2022-10-14T23:17:36.555Z,100354.66
2022-10-14T23:20:12.675Z,100348.58
2022-10-14T23:22:45.209Z,100348.04
2022-10-14T23:25:17.021Z,100345.18
2022-10-14T23:30:25.069Z,100342.94
2022-10-14T23:32:58.278Z,100335.48
2022-10-14T23:35:30.311Z,100328.95
2022-10-14T23:38:02.691Z,100322.17
2022-10-14T23:40:34.706Z,100322.33
2022-10-14T23:43:07.875Z,100321.02
2022-10-14T23:45:39.507Z,100315.87
2022-10-14T23:48:11.091Z,100309.84
2022-10-14T23:50:44.312Z,100312.92
2022-10-14T23:53:17.060Z,100315.52
2022-10-14T23:55:48.813Z,100315.21
2022-10-14T23:58:20.537Z,100314.04
